createdAt,value
2017-08-06T00:00:52.238Z,19.41
2017-08-06T00:01:48.524Z,19.39
2017-08-06T00:02:44.783Z,19.37
2017-08-06T00:03:41.046Z,19.34
2017-08-06T00:04:37.347Z,19.32
2017-08-06T00:05:33.604Z,19.32
2017-08-06T00:06:29.863Z,19.29
2017-08-06T00:07:26.135Z,19.26
2017-08-06T00:08:22.375Z,19.22
2017-08-06T00:09:18.626Z,19.21
2017-08-06T00:10:14.892Z,19.18
2017-08-06T00:11:11.145Z,19.14
2017-08-06T00:12:07.396Z,19.13
2017-08-06T00:13:03.651Z,19.12
2017-08-06T00:13:59.908Z,19.08
2017-08-06T00:14:56.179Z,19.07
2017-08-06T00:15:52.427Z,19.03
2017-08-06T00:16:48.667Z,19.02
2017-08-06T00:17:44.923Z,18.99
2017-08-06T00:18:41.176Z,18.95
2017-08-06T00:19:37.431Z,18.93
2017-08-06T00:20:33.699Z,18.91
2017-08-06T00:21:29.951Z,18.87
2017-08-06T00:22:26.199Z,18.87
2017-08-06T00:23:22.445Z,18.84
2017-08-06T00:24:18.691Z,18.80
2017-08-06T00:25:14.947Z,18.78
2017-08-06T00:26:11.207Z,18.76
2017-08-06T00:27:07.468Z,18.73
2017-08-06T00:28:03.718Z,18.71
2017-08-06T00:28:59.968Z,18.68
2017-08-06T00:29:56.229Z,18.66
2017-08-06T00:30:52.501Z,18.63
2017-08-06T00:31:48.756Z,18.59
2017-08-06T00:32:45.003Z,18.59
2017-08-06T00:33:41.251Z,18.56
2017-08-06T00:34:37.487Z,18.52
2017-08-06T00:35:33.757Z,18.51
2017-08-06T00:36:30.000Z,18.49
2017-08-06T00:37:26.248Z,18.44
2017-08-06T00:38:22.495Z,18.44
2017-08-06T00:39:18.735Z,18.42
2017-08-06T00:40:14.974Z,18.38
2017-08-06T00:41:11.239Z,18.36
2017-08-06T00:42:07.487Z,18.35
2017-08-06T00:43:03.727Z,18.32
2017-08-06T00:43:59.974Z,18.28
2017-08-06T00:44:56.214Z,18.27
2017-08-06T00:45:52.456Z,18.24
2017-08-06T00:46:48.719Z,18.23
2017-08-06T00:47:44.966Z,18.19
2017-08-06T00:48:41.211Z,18.18
2017-08-06T00:49:37.454Z,18.16
2017-08-06T00:50:33.708Z,18.12
2017-08-06T00:51:29.967Z,18.12
2017-08-06T00:52:26.208Z,18.09
2017-08-06T00:53:22.462Z,18.06
2017-08-06T00:54:18.704Z,18.04
2017-08-06T00:55:14.956Z,18.03
2017-08-06T00:56:11.216Z,17.99
2017-08-06T00:57:07.459Z,17.98
2017-08-06T00:58:03.700Z,17.96
2017-08-06T00:58:59.943Z,17.94
2017-08-06T00:59:56.183Z,17.90
2017-08-06T01:00:52.427Z,17.87
2017-08-06T01:01:48.692Z,17.86
2017-08-06T01:02:44.936Z,17.84
2017-08-06T01:03:41.188Z,17.81
2017-08-06T01:04:37.431Z,17.79
2017-08-06T01:05:33.671Z,17.76
2017-08-06T01:06:29.911Z,17.73
2017-08-06T01:07:26.175Z,17.71
2017-08-06T01:08:22.415Z,17.72
2017-08-06T01:09:18.660Z,17.68
2017-08-06T01:10:14.908Z,17.65
2017-08-06T01:11:11.151Z,17.62
2017-08-06T01:12:07.415Z,17.60
2017-08-06T01:13:03.687Z,17.58
2017-08-06T01:13:59.938Z,17.57
2017-08-06T01:14:56.183Z,17.55
2017-08-06T01:15:52.428Z,17.54
2017-08-06T01:16:48.688Z,17.52
2017-08-06T01:17:44.987Z,17.50
2017-08-06T01:18:41.230Z,17.48
2017-08-06T01:19:37.726Z,17.48
2017-08-06T01:20:33.978Z,17.45
2017-08-06T01:21:30.222Z,17.44
2017-08-06T01:22:26.475Z,17.41
2017-08-06T01:23:23.073Z,17.40
2017-08-06T01:24:19.318Z,17.37
2017-08-06T01:25:15.547Z,17.37
2017-08-06T01:26:11.803Z,17.35
2017-08-06T01:27:08.042Z,17.32
2017-08-06T01:28:04.298Z,17.29
2017-08-06T01:29:00.539Z,17.30
2017-08-06T01:29:56.795Z,17.27
2017-08-06T01:30:53.034Z,17.26
2017-08-06T01:31:49.279Z,17.25
2017-08-06T01:32:45.531Z,17.25
2017-08-06T01:33:41.795Z,17.24
2017-08-06T01:34:38.031Z,17.20
2017-08-06T01:35:34.279Z,17.21
2017-08-06T01:36:30.523Z,17.18
2017-08-06T01:37:26.770Z,17.16
2017-08-06T01:38:23.026Z,17.16
2017-08-06T01:39:19.264Z,17.14
2017-08-06T01:40:15.523Z,17.14
2017-08-06T01:41:11.763Z,17.11
2017-08-06T01:42:08.004Z,17.11
2017-08-06T01:43:04.288Z,17.08
2017-08-06T01:44:00.537Z,17.07
2017-08-06T01:44:56.795Z,17.07
2017-08-06T01:45:53.039Z,17.05
2017-08-06T01:46:49.291Z,17.04
2017-08-06T01:47:45.530Z,17.03
2017-08-06T01:48:41.802Z,17.01
2017-08-06T01:49:38.055Z,16.98
2017-08-06T01:50:34.295Z,16.99
2017-08-06T01:51:30.539Z,16.98
2017-08-06T01:52:26.780Z,16.94
2017-08-06T01:53:23.031Z,16.95
2017-08-06T01:54:19.294Z,16.93
2017-08-06T01:55:15.540Z,16.92
2017-08-06T01:56:11.774Z,16.92
2017-08-06T01:57:08.013Z,16.90
2017-08-06T01:58:04.266Z,16.89
2017-08-06T01:59:00.524Z,16.86
2017-08-06T01:59:56.770Z,16.86
2017-08-06T02:00:53.003Z,16.85
2017-08-06T02:01:49.238Z,16.83
2017-08-06T02:02:45.479Z,16.81
2017-08-06T02:03:41.732Z,16.81
2017-08-06T02:04:38.003Z,16.81
2017-08-06T02:05:34.252Z,16.80
2017-08-06T02:06:30.503Z,16.77
2017-08-06T02:07:26.755Z,16.76
2017-08-06T02:08:22.995Z,16.74
2017-08-06T02:09:19.235Z,16.74
2017-08-06T02:10:15.499Z,16.72
2017-08-06T02:11:11.738Z,16.72
2017-08-06T02:12:07.981Z,16.67
2017-08-06T02:13:04.331Z,16.68
2017-08-06T02:14:00.567Z,16.66
2017-08-06T02:14:56.826Z,16.64
2017-08-06T02:15:53.070Z,16.62
2017-08-06T02:16:49.311Z,16.62
2017-08-06T02:17:45.563Z,16.60
2017-08-06T02:18:41.809Z,16.59
2017-08-06T02:19:38.063Z,16.58
2017-08-06T02:20:34.348Z,16.57
2017-08-06T02:21:30.594Z,16.54
2017-08-06T02:22:26.827Z,16.53
2017-08-06T02:23:23.067Z,16.52
2017-08-06T02:24:19.324Z,16.50
2017-08-06T02:25:15.558Z,16.50
2017-08-06T02:26:11.827Z,16.48
2017-08-06T02:27:08.083Z,16.47
2017-08-06T02:28:04.331Z,16.46
2017-08-06T02:29:00.582Z,16.44
2017-08-06T02:29:56.835Z,16.43
2017-08-06T02:30:53.118Z,16.41
2017-08-06T02:31:49.379Z,16.41
2017-08-06T02:32:45.654Z,16.38
2017-08-06T02:33:41.899Z,16.37
2017-08-06T02:34:38.139Z,16.35
2017-08-06T02:35:34.389Z,16.33
2017-08-06T02:36:30.651Z,16.32
2017-08-06T02:37:26.912Z,16.29
2017-08-06T02:38:23.296Z,16.27
2017-08-06T02:39:19.539Z,16.26
2017-08-06T02:40:15.803Z,16.24
2017-08-06T02:41:12.068Z,16.23
2017-08-06T02:42:08.336Z,16.22
2017-08-06T02:43:04.600Z,16.21
2017-08-06T02:44:00.847Z,16.18
2017-08-06T02:44:57.103Z,16.18
2017-08-06T02:45:53.360Z,16.17
2017-08-06T02:46:49.640Z,16.16
2017-08-06T02:47:45.890Z,16.16
2017-08-06T02:48:42.138Z,16.12
2017-08-06T02:49:38.399Z,16.12
2017-08-06T02:50:34.652Z,16.11
2017-08-06T02:51:30.932Z,16.09
2017-08-06T02:52:27.187Z,16.09
2017-08-06T02:53:23.464Z,16.07
2017-08-06T02:54:19.728Z,16.07
2017-08-06T02:55:15.999Z,16.04
2017-08-06T02:56:12.277Z,16.03
2017-08-06T02:57:08.560Z,16.01
2017-08-06T02:58:04.815Z,16.00
2017-08-06T02:59:01.068Z,15.97
2017-08-06T02:59:57.347Z,15.97
2017-08-06T03:00:53.614Z,15.96
2017-08-06T03:01:49.876Z,15.93
2017-08-06T03:02:46.147Z,15.92
2017-08-06T03:03:42.413Z,15.90
2017-08-06T03:04:38.667Z,15.88
2017-08-06T03:05:34.927Z,15.88
2017-08-06T03:06:31.205Z,15.87
2017-08-06T03:07:27.455Z,15.85
2017-08-06T03:08:23.735Z,15.84
2017-08-06T03:09:19.983Z,15.82
2017-08-06T03:10:16.251Z,15.82
2017-08-06T03:11:12.530Z,15.79
2017-08-06T03:12:08.790Z,15.81
2017-08-06T03:13:05.076Z,15.77
2017-08-06T03:14:01.339Z,15.77
2017-08-06T03:14:57.592Z,15.74
2017-08-06T03:15:53.847Z,15.75
2017-08-06T03:16:50.096Z,15.74
2017-08-06T03:17:46.355Z,15.72
2017-08-06T03:18:42.634Z,15.70
2017-08-06T03:19:38.890Z,15.70
2017-08-06T03:20:35.151Z,15.67
2017-08-06T03:21:31.407Z,15.67
2017-08-06T03:22:27.663Z,15.66
2017-08-06T03:23:23.931Z,15.65
2017-08-06T03:24:20.191Z,15.62
2017-08-06T03:25:16.455Z,15.63
2017-08-06T03:26:12.715Z,15.60
2017-08-06T03:27:08.967Z,15.61
2017-08-06T03:28:05.236Z,15.60
2017-08-06T03:29:01.504Z,15.58
2017-08-06T03:29:57.758Z,15.58
2017-08-06T03:30:54.023Z,15.56
2017-08-06T03:31:50.284Z,15.56
2017-08-06T03:32:46.547Z,15.54
2017-08-06T03:33:42.827Z,15.55
2017-08-06T03:34:39.100Z,15.54
2017-08-06T03:35:35.361Z,15.53
2017-08-06T03:36:31.616Z,15.51
2017-08-06T03:37:27.868Z,15.51
2017-08-06T03:38:24.137Z,15.50
2017-08-06T03:39:20.439Z,15.48
2017-08-06T03:40:16.704Z,15.48
2017-08-06T03:41:12.963Z,15.47
2017-08-06T03:42:09.219Z,15.47
2017-08-06T03:43:05.498Z,15.44
2017-08-06T03:44:01.762Z,15.44
2017-08-06T03:44:58.026Z,15.43
2017-08-06T03:45:54.279Z,15.43
2017-08-06T03:46:50.532Z,15.41
2017-08-06T03:47:46.782Z,15.42
2017-08-06T03:48:43.040Z,15.41
2017-08-06T03:49:39.306Z,15.39
2017-08-06T03:50:35.568Z,15.39
2017-08-06T03:51:31.826Z,15.39
2017-08-06T03:52:28.095Z,15.37
2017-08-06T03:53:24.370Z,15.37
2017-08-06T03:54:20.630Z,15.36
2017-08-06T03:55:16.915Z,15.34
2017-08-06T03:56:13.167Z,15.34
2017-08-06T03:57:09.452Z,15.33
2017-08-06T03:58:05.743Z,15.33
2017-08-06T03:59:02.008Z,15.31
2017-08-06T03:59:58.305Z,15.31
2017-08-06T04:00:54.764Z,15.30
2017-08-06T04:01:51.027Z,15.29
2017-08-06T04:02:47.287Z,15.27
2017-08-06T04:03:43.547Z,15.28
2017-08-06T04:04:39.796Z,15.27
2017-08-06T04:05:36.083Z,15.28
2017-08-06T04:06:32.330Z,15.27
2017-08-06T04:07:28.596Z,15.27
2017-08-06T04:08:24.844Z,15.28
2017-08-06T04:09:21.099Z,15.26
2017-08-06T04:10:17.379Z,15.26
2017-08-06T04:11:13.642Z,15.27
2017-08-06T04:12:09.908Z,15.25
2017-08-06T04:13:06.184Z,15.26
2017-08-06T04:14:02.431Z,15.24
2017-08-06T04:14:58.690Z,15.24
2017-08-06T04:15:54.954Z,15.23
2017-08-06T04:16:51.211Z,15.24
2017-08-06T04:17:47.466Z,15.23
2017-08-06T04:18:43.728Z,15.21
2017-08-06T04:19:39.991Z,15.21
2017-08-06T04:20:36.239Z,15.20
2017-08-06T04:21:32.511Z,15.20
2017-08-06T04:22:28.772Z,15.20
2017-08-06T04:23:25.019Z,15.19
2017-08-06T04:24:21.259Z,15.18
2017-08-06T04:25:17.506Z,15.16
2017-08-06T04:26:13.871Z,15.15
2017-08-06T04:27:10.171Z,15.16
2017-08-06T04:28:06.455Z,15.15
2017-08-06T04:29:02.704Z,15.14
2017-08-06T04:29:58.967Z,15.13
2017-08-06T04:30:55.211Z,15.13
2017-08-06T04:31:51.531Z,15.12
2017-08-06T04:32:47.787Z,15.12
2017-08-06T04:33:44.034Z,15.13
2017-08-06T04:34:40.303Z,15.13
2017-08-06T04:35:36.561Z,15.11
2017-08-06T04:36:32.818Z,15.11
2017-08-06T04:37:29.082Z,15.11
2017-08-06T04:38:25.335Z,15.12
2017-08-06T04:39:21.589Z,15.12
2017-08-06T04:40:17.843Z,15.10
2017-08-06T04:41:14.094Z,15.11
2017-08-06T04:42:10.356Z,15.11
2017-08-06T04:43:06.623Z,15.10
2017-08-06T04:44:02.886Z,15.10
2017-08-06T04:44:59.159Z,15.10
2017-08-06T04:45:55.409Z,15.11
2017-08-06T04:46:51.646Z,15.11
2017-08-06T04:47:47.930Z,15.11
2017-08-06T04:48:44.199Z,15.12
2017-08-06T04:49:40.483Z,15.12
2017-08-06T04:50:36.727Z,15.12
2017-08-06T04:51:32.982Z,15.11
2017-08-06T04:52:29.268Z,15.12
2017-08-06T04:53:25.523Z,15.10
2017-08-06T04:54:21.779Z,15.13
2017-08-06T04:55:18.033Z,15.12
2017-08-06T04:56:14.291Z,15.11
2017-08-06T04:57:10.554Z,15.14
2017-08-06T04:58:06.825Z,15.12
2017-08-06T04:59:03.094Z,15.14
2017-08-06T04:59:59.411Z,15.13
2017-08-06T05:00:55.691Z,15.13
2017-08-06T05:01:51.959Z,15.14
2017-08-06T05:02:48.367Z,15.13
2017-08-06T05:03:44.606Z,15.16
2017-08-06T05:04:40.856Z,15.14
2017-08-06T05:05:37.130Z,15.15
2017-08-06T05:06:33.395Z,15.16
2017-08-06T05:07:29.659Z,15.16
2017-08-06T05:08:25.934Z,15.17
2017-08-06T05:09:22.183Z,15.17
2017-08-06T05:10:18.438Z,15.18
2017-08-06T05:11:14.695Z,15.17
2017-08-06T05:12:10.946Z,15.17
2017-08-06T05:13:07.204Z,15.18
2017-08-06T05:14:03.471Z,15.18
2017-08-06T05:14:59.718Z,15.19
2017-08-06T05:15:55.971Z,15.18
2017-08-06T05:16:52.227Z,15.20
2017-08-06T05:17:48.471Z,15.21
2017-08-06T05:18:44.747Z,15.20
2017-08-06T05:19:40.991Z,15.22
2017-08-06T05:20:37.251Z,15.22
2017-08-06T05:21:33.502Z,15.22
2017-08-06T05:22:29.756Z,15.24
2017-08-06T05:23:26.006Z,15.23
2017-08-06T05:24:22.275Z,15.25
2017-08-06T05:25:18.530Z,15.25
2017-08-06T05:26:14.787Z,15.25
2017-08-06T05:27:11.027Z,15.26
2017-08-06T05:28:07.270Z,15.29
2017-08-06T05:29:03.533Z,15.27
2017-08-06T05:29:59.779Z,15.30
2017-08-06T05:30:56.047Z,15.30
2017-08-06T05:31:52.302Z,15.30
2017-08-06T05:32:48.539Z,15.32
2017-08-06T05:33:44.784Z,15.33
2017-08-06T05:34:41.052Z,15.32
2017-08-06T05:35:37.304Z,15.34
2017-08-06T05:36:33.592Z,15.34
2017-08-06T05:37:29.855Z,15.35
2017-08-06T05:38:26.103Z,15.36
2017-08-06T05:39:22.362Z,15.36
2017-08-06T05:40:18.639Z,15.38
2017-08-06T05:41:14.882Z,15.38
2017-08-06T05:42:11.151Z,15.39
2017-08-06T05:43:07.415Z,15.40
2017-08-06T05:44:03.671Z,15.41
2017-08-06T05:44:59.959Z,15.41
2017-08-06T05:45:56.212Z,15.42
2017-08-06T05:46:52.450Z,15.43
2017-08-06T05:47:48.724Z,15.45
2017-08-06T05:48:44.963Z,15.46
2017-08-06T05:49:41.226Z,15.47
2017-08-06T05:50:37.503Z,15.49
2017-08-06T05:51:33.761Z,15.50
2017-08-06T05:52:30.012Z,15.52
2017-08-06T05:53:26.287Z,15.53
2017-08-06T05:54:22.557Z,15.55
2017-08-06T05:55:18.852Z,15.57
2017-08-06T05:56:15.116Z,15.59
2017-08-06T05:57:11.374Z,15.61
2017-08-06T05:58:07.623Z,15.62
2017-08-06T05:59:03.875Z,15.64
2017-08-06T06:00:00.126Z,15.65
2017-08-06T06:00:56.409Z,15.68
2017-08-06T06:01:52.684Z,15.70
2017-08-06T06:02:48.945Z,15.72
2017-08-06T06:03:45.193Z,15.74
2017-08-06T06:04:41.460Z,15.77
2017-08-06T06:05:37.743Z,15.79
2017-08-06T06:06:34.009Z,15.80
2017-08-06T06:07:30.271Z,15.82
2017-08-06T06:08:26.578Z,15.85
2017-08-06T06:09:25.071Z,15.87
2017-08-06T06:10:21.371Z,15.88
2017-08-06T06:11:17.659Z,15.91
2017-08-06T06:12:13.912Z,15.92
2017-08-06T06:13:10.180Z,15.95
2017-08-06T06:14:06.447Z,15.97
2017-08-06T06:15:02.722Z,16.00
2017-08-06T06:15:59.003Z,16.01
2017-08-06T06:16:55.271Z,16.04
2017-08-06T06:17:51.538Z,16.07
2017-08-06T06:18:47.788Z,16.08
2017-08-06T06:19:44.310Z,16.10
2017-08-06T06:20:40.579Z,16.13
2017-08-06T06:21:36.854Z,16.15
2017-08-06T06:22:33.120Z,16.17
2017-08-06T06:23:29.390Z,16.19
2017-08-06T06:24:25.636Z,16.20
2017-08-06T06:25:21.903Z,16.24
2017-08-06T06:26:18.171Z,16.26
2017-08-06T06:27:14.435Z,16.27
2017-08-06T06:28:10.739Z,16.29
2017-08-06T06:29:07.016Z,16.31
2017-08-06T06:30:03.276Z,16.32
2017-08-06T06:30:59.551Z,16.36
2017-08-06T06:31:55.814Z,16.38
2017-08-06T06:32:52.084Z,16.40
2017-08-06T06:33:48.335Z,16.43
2017-08-06T06:34:44.590Z,16.45
2017-08-06T06:35:40.843Z,16.47
2017-08-06T06:36:37.140Z,16.48
2017-08-06T06:37:33.408Z,16.51
2017-08-06T06:38:30.048Z,16.54
2017-08-06T06:39:26.308Z,16.55
2017-08-06T06:40:22.587Z,16.58
2017-08-06T06:41:18.845Z,16.59
2017-08-06T06:42:15.130Z,16.62
2017-08-06T06:43:11.409Z,16.64
2017-08-06T06:44:07.681Z,16.66
2017-08-06T06:45:03.954Z,16.70
2017-08-06T06:46:00.216Z,16.71
2017-08-06T06:46:56.523Z,16.73
2017-08-06T06:47:52.779Z,16.75
2017-08-06T06:48:49.026Z,16.78
2017-08-06T06:49:45.292Z,16.79
2017-08-06T06:50:41.538Z,16.83
2017-08-06T06:51:37.801Z,16.85
2017-08-06T06:52:34.083Z,16.88
2017-08-06T06:53:30.342Z,16.90
2017-08-06T06:54:26.596Z,16.92
2017-08-06T06:55:22.842Z,16.95
2017-08-06T06:56:19.095Z,16.95
2017-08-06T06:57:15.351Z,16.99
2017-08-06T06:58:11.595Z,17.04
2017-08-06T06:59:07.844Z,17.05
2017-08-06T07:00:04.100Z,17.07
2017-08-06T07:01:00.363Z,17.09
2017-08-06T07:01:56.620Z,17.12
2017-08-06T07:02:52.884Z,17.15
2017-08-06T07:03:49.184Z,17.19
2017-08-06T07:04:45.422Z,17.20
2017-08-06T07:05:41.680Z,17.25
2017-08-06T07:06:37.927Z,17.26
2017-08-06T07:07:34.194Z,17.30
2017-08-06T07:08:30.499Z,17.32
2017-08-06T07:09:26.747Z,17.35
2017-08-06T07:10:23.010Z,17.37
2017-08-06T07:11:19.264Z,17.40
2017-08-06T07:12:15.507Z,17.42
2017-08-06T07:13:11.784Z,17.44
2017-08-06T07:14:08.023Z,17.47
2017-08-06T07:15:04.280Z,17.50
2017-08-06T07:16:00.527Z,17.51
2017-08-06T07:16:56.786Z,17.55
2017-08-06T07:17:53.058Z,17.58
2017-08-06T07:18:49.311Z,17.61
2017-08-06T07:19:45.593Z,17.64
2017-08-06T07:20:41.834Z,17.65
2017-08-06T07:21:38.090Z,17.70
2017-08-06T07:22:34.340Z,17.72
2017-08-06T07:23:30.735Z,17.75
2017-08-06T07:24:26.998Z,17.79
2017-08-06T07:25:23.251Z,17.80
2017-08-06T07:26:19.491Z,17.83
2017-08-06T07:27:15.739Z,17.83
2017-08-06T07:28:11.991Z,17.87
2017-08-06T07:29:08.273Z,17.88
2017-08-06T07:30:04.521Z,17.90
2017-08-06T07:31:00.783Z,17.92
2017-08-06T07:31:57.032Z,17.96
2017-08-06T07:32:53.284Z,17.99
2017-08-06T07:33:49.556Z,18.02
2017-08-06T07:34:46.023Z,18.04
2017-08-06T07:35:42.298Z,18.08
2017-08-06T07:36:38.553Z,18.11
2017-08-06T07:37:34.811Z,18.15
2017-08-06T07:38:31.050Z,18.18
2017-08-06T07:39:27.319Z,18.19
2017-08-06T07:40:23.583Z,18.22
2017-08-06T07:41:19.841Z,18.24
2017-08-06T07:42:16.083Z,18.26
2017-08-06T07:43:12.351Z,18.29
2017-08-06T07:44:08.628Z,18.30
2017-08-06T07:45:04.908Z,18.35
2017-08-06T07:46:01.156Z,18.34
2017-08-06T07:46:57.448Z,18.39
2017-08-06T07:47:53.747Z,18.40
2017-08-06T07:48:50.019Z,18.42
2017-08-06T07:49:46.299Z,18.42
2017-08-06T07:50:42.573Z,18.44
2017-08-06T07:51:38.838Z,18.46
2017-08-06T07:52:35.111Z,18.49
2017-08-06T07:53:31.383Z,18.52
2017-08-06T07:54:27.690Z,18.52
2017-08-06T07:55:23.950Z,18.53
2017-08-06T07:56:20.211Z,18.56
2017-08-06T07:57:16.475Z,18.56
2017-08-06T07:58:13.632Z,18.58
2017-08-06T07:59:09.895Z,18.60
2017-08-06T08:00:06.203Z,18.60
2017-08-06T08:01:02.455Z,18.63
2017-08-06T08:01:58.723Z,18.64
2017-08-06T08:02:54.998Z,18.65
2017-08-06T08:03:51.262Z,18.67
2017-08-06T08:04:47.524Z,18.69
2017-08-06T08:05:43.808Z,18.70
2017-08-06T08:06:40.069Z,18.71
2017-08-06T08:07:36.346Z,18.72
2017-08-06T08:08:32.603Z,18.74
2017-08-06T08:09:28.863Z,18.76
2017-08-06T08:10:25.147Z,18.79
2017-08-06T08:11:21.407Z,18.78
2017-08-06T08:12:17.667Z,18.81
2017-08-06T08:13:13.928Z,18.81
2017-08-06T08:14:10.179Z,18.85
2017-08-06T08:15:07.347Z,18.87
2017-08-06T08:16:03.624Z,18.88
2017-08-06T08:17:00.340Z,18.92
2017-08-06T08:17:56.598Z,18.92
2017-08-06T08:18:52.858Z,18.95
2017-08-06T08:19:49.131Z,18.97
2017-08-06T08:20:45.440Z,19.01
2017-08-06T08:21:41.703Z,19.03
2017-08-06T08:22:37.959Z,19.06
2017-08-06T08:23:34.211Z,19.08
2017-08-06T08:24:30.484Z,19.09
2017-08-06T08:25:26.739Z,19.12
2017-08-06T08:26:23.011Z,19.14
2017-08-06T08:27:19.394Z,19.16
2017-08-06T08:28:15.671Z,19.19
2017-08-06T08:29:11.945Z,19.23
2017-08-06T08:30:08.204Z,19.26
2017-08-06T08:31:04.491Z,19.29
2017-08-06T08:32:00.829Z,19.33
2017-08-06T08:32:57.096Z,19.35
2017-08-06T08:33:53.364Z,19.37
2017-08-06T08:34:49.644Z,19.39
2017-08-06T08:35:45.912Z,19.44
2017-08-06T08:36:42.182Z,19.48
2017-08-06T08:37:38.443Z,19.52
2017-08-06T08:38:34.715Z,19.56
2017-08-06T08:39:30.992Z,19.61
2017-08-06T08:40:27.259Z,19.64
2017-08-06T08:41:23.513Z,19.69
2017-08-06T08:42:19.782Z,19.70
2017-08-06T08:43:16.034Z,19.74
2017-08-06T08:44:12.302Z,19.76
2017-08-06T08:45:08.554Z,19.80
2017-08-06T08:46:04.823Z,19.83
2017-08-06T08:47:01.095Z,19.85
2017-08-06T08:47:57.362Z,19.88
2017-08-06T08:48:53.610Z,19.91
2017-08-06T08:49:49.898Z,19.96
2017-08-06T08:50:46.152Z,19.96
2017-08-06T08:51:42.428Z,20.00
2017-08-06T08:53:03.306Z,20.04
2017-08-06T08:53:59.553Z,20.06
2017-08-06T08:54:55.818Z,20.05
2017-08-06T08:55:52.095Z,20.03
2017-08-06T08:56:48.378Z,20.00
2017-08-06T08:57:44.618Z,19.98
2017-08-06T08:58:40.875Z,19.95
2017-08-06T08:59:37.111Z,19.92
2017-08-06T09:00:33.370Z,19.90
2017-08-06T09:01:29.623Z,19.87
2017-08-06T09:02:25.887Z,19.87
2017-08-06T09:03:22.130Z,19.86
2017-08-06T09:04:18.386Z,19.85
2017-08-06T09:05:14.626Z,19.84
2017-08-06T09:06:10.896Z,19.83
2017-08-06T09:07:07.159Z,19.84
2017-08-06T09:08:03.432Z,19.86
2017-08-06T09:08:59.682Z,19.86
2017-08-06T09:09:55.919Z,19.88
2017-08-06T09:10:52.181Z,19.90
2017-08-06T09:11:48.436Z,19.92
2017-08-06T09:12:44.694Z,19.94
2017-08-06T09:13:40.934Z,19.94
2017-08-06T09:14:37.185Z,19.96
2017-08-06T09:15:33.427Z,19.95
2017-08-06T09:16:29.684Z,19.97
2017-08-06T09:17:25.971Z,19.99
2017-08-06T09:18:22.243Z,20.01
2017-08-06T09:19:18.495Z,20.05
2017-08-06T09:20:14.739Z,20.10
2017-08-06T09:21:11.019Z,20.17
2017-08-06T09:22:07.283Z,20.24
2017-08-06T09:23:03.558Z,20.33
2017-08-06T09:23:59.820Z,20.40
2017-08-06T09:24:56.066Z,20.49
2017-08-06T09:25:52.315Z,20.55
2017-08-06T09:26:48.562Z,20.62
2017-08-06T09:27:44.830Z,20.65
2017-08-06T09:28:41.082Z,20.71
2017-08-06T09:29:37.329Z,20.79
2017-08-06T09:30:33.571Z,20.86
2017-08-06T09:31:29.815Z,20.96
2017-08-06T09:32:26.062Z,21.06
2017-08-06T09:33:22.326Z,21.16
2017-08-06T09:34:18.573Z,21.26
2017-08-06T09:35:14.818Z,21.37
2017-08-06T09:36:11.059Z,21.48
2017-08-06T09:37:07.305Z,21.60
2017-08-06T09:38:03.578Z,21.71
2017-08-06T09:38:59.832Z,21.82
2017-08-06T09:39:56.079Z,21.94
2017-08-06T09:40:52.326Z,22.08
2017-08-06T09:41:48.587Z,22.21
2017-08-06T09:42:44.845Z,22.33
2017-08-06T09:43:41.103Z,22.47
2017-08-06T09:44:37.358Z,22.59
2017-08-06T09:45:33.594Z,22.73
2017-08-06T09:46:29.843Z,22.89
2017-08-06T09:47:26.102Z,23.01
2017-08-06T09:48:22.377Z,23.15
2017-08-06T09:49:18.635Z,23.27
2017-08-06T09:50:14.899Z,23.39
2017-08-06T09:51:11.147Z,23.52
2017-08-06T09:52:07.407Z,23.65
2017-08-06T09:53:03.650Z,23.76
2017-08-06T09:53:59.913Z,23.87
2017-08-06T09:54:56.171Z,23.97
2017-08-06T09:55:52.431Z,24.07
2017-08-06T09:56:48.890Z,24.18
2017-08-06T09:57:45.164Z,24.26
2017-08-06T09:58:41.431Z,24.36
2017-08-06T09:59:37.699Z,24.42
2017-08-06T10:00:33.938Z,24.53
2017-08-06T10:01:30.189Z,24.60
2017-08-06T10:02:26.440Z,24.66
2017-08-06T10:03:22.682Z,24.73
2017-08-06T10:04:18.987Z,24.80
2017-08-06T10:05:15.231Z,24.87
2017-08-06T10:06:11.486Z,24.91
2017-08-06T10:07:07.734Z,24.94
2017-08-06T10:08:03.978Z,25.00
2017-08-06T10:09:00.234Z,25.04
2017-08-06T10:09:56.506Z,25.09
2017-08-06T10:10:52.751Z,25.15
2017-08-06T10:11:48.999Z,25.23
2017-08-06T10:12:45.259Z,25.30
2017-08-06T10:13:41.503Z,25.35
2017-08-06T10:14:37.771Z,25.42
2017-08-06T10:15:34.027Z,25.49
2017-08-06T10:16:30.278Z,25.57
2017-08-06T10:17:26.600Z,25.64
2017-08-06T10:18:22.851Z,25.70
2017-08-06T10:19:19.104Z,25.76
2017-08-06T10:20:15.362Z,25.79
2017-08-06T10:21:11.606Z,25.81
2017-08-06T10:22:07.855Z,25.82
2017-08-06T10:23:04.119Z,25.78
2017-08-06T10:24:00.370Z,25.75
2017-08-06T10:24:56.633Z,25.72
2017-08-06T10:25:52.873Z,25.69
2017-08-06T10:26:49.118Z,25.65
2017-08-06T10:27:45.362Z,25.63
2017-08-06T10:28:41.603Z,25.54
2017-08-06T10:29:37.842Z,25.45
2017-08-06T10:30:34.110Z,25.34
2017-08-06T10:31:30.355Z,25.22
2017-08-06T10:32:26.605Z,25.07
2017-08-06T10:33:22.874Z,24.95
2017-08-06T10:34:19.131Z,24.82
2017-08-06T10:35:15.399Z,24.71
2017-08-06T10:36:11.659Z,24.62
2017-08-06T10:37:07.913Z,24.53
2017-08-06T10:38:04.166Z,24.45
2017-08-06T10:39:00.425Z,24.36
2017-08-06T10:39:56.683Z,24.28
2017-08-06T10:40:52.932Z,24.21
2017-08-06T10:41:49.198Z,24.11
2017-08-06T10:42:45.458Z,24.01
2017-08-06T10:43:41.720Z,23.94
2017-08-06T10:44:37.977Z,23.88
2017-08-06T10:45:34.222Z,23.83
2017-08-06T10:46:30.501Z,23.79
2017-08-06T10:47:26.758Z,23.79
2017-08-06T10:48:23.015Z,23.80
2017-08-06T10:49:19.263Z,23.81
2017-08-06T10:50:15.515Z,23.82
2017-08-06T10:51:11.793Z,23.84
2017-08-06T10:52:08.067Z,23.87
2017-08-06T10:53:04.324Z,23.89
2017-08-06T10:54:00.583Z,23.92
2017-08-06T10:54:56.868Z,23.97
2017-08-06T10:55:53.142Z,24.02
2017-08-06T10:56:49.423Z,24.08
2017-08-06T10:57:46.030Z,24.14
2017-08-06T10:58:42.299Z,24.23
2017-08-06T10:59:38.567Z,24.29
2017-08-06T11:00:34.838Z,24.38
2017-08-06T11:01:31.091Z,24.43
2017-08-06T11:02:27.362Z,24.50
2017-08-06T11:03:23.622Z,24.58
2017-08-06T11:04:19.878Z,24.65
2017-08-06T11:05:16.126Z,24.70
2017-08-06T11:06:12.390Z,24.75
2017-08-06T11:07:08.631Z,24.80
2017-08-06T11:08:04.898Z,24.84
2017-08-06T11:09:01.158Z,24.88
2017-08-06T11:09:57.412Z,24.95
2017-08-06T11:10:53.677Z,24.98
2017-08-06T11:11:49.938Z,25.05
2017-08-06T11:12:46.190Z,25.10
2017-08-06T11:13:43.409Z,25.13
2017-08-06T11:14:39.670Z,25.15
2017-08-06T11:15:35.930Z,25.20
2017-08-06T11:16:32.231Z,25.23
2017-08-06T11:17:28.487Z,25.29
2017-08-06T11:18:24.763Z,25.35
2017-08-06T11:19:21.018Z,25.41
2017-08-06T11:20:17.266Z,25.46
2017-08-06T11:21:13.519Z,25.51
2017-08-06T11:22:09.783Z,25.57
2017-08-06T11:23:06.056Z,25.63
2017-08-06T11:24:02.337Z,25.67
2017-08-06T11:24:58.595Z,25.71
2017-08-06T11:25:54.851Z,25.75
2017-08-06T11:26:51.112Z,25.78
2017-08-06T11:27:47.370Z,25.82
2017-08-06T11:28:43.651Z,25.84
2017-08-06T11:29:39.926Z,25.86
2017-08-06T11:30:36.181Z,25.86
2017-08-06T11:31:32.431Z,25.86
2017-08-06T11:32:28.699Z,25.88
2017-08-06T11:33:24.957Z,25.89
2017-08-06T11:34:21.222Z,25.88
2017-08-06T11:35:17.481Z,25.87
2017-08-06T11:36:13.743Z,25.88
2017-08-06T11:37:09.998Z,25.89
2017-08-06T11:38:06.275Z,25.92
2017-08-06T11:39:02.558Z,25.94
2017-08-06T11:39:58.942Z,25.96
2017-08-06T11:40:55.208Z,26.00
2017-08-06T11:41:51.458Z,26.02
2017-08-06T11:42:47.698Z,26.02
2017-08-06T11:43:44.282Z,26.00
2017-08-06T11:44:40.544Z,25.98
2017-08-06T14:35:31.971Z,25.80
2017-08-06T14:36:39.047Z,25.83
2017-08-06T14:37:46.098Z,25.82
2017-08-06T14:38:53.163Z,25.85
2017-08-06T14:40:00.220Z,25.92
2017-08-06T14:41:07.259Z,26.01
2017-08-06T14:42:14.296Z,26.05
2017-08-06T14:43:21.367Z,26.08
2017-08-06T14:44:28.417Z,26.08
2017-08-06T14:45:35.526Z,26.06
2017-08-06T14:46:42.582Z,26.05
2017-08-06T14:47:49.638Z,26.03
2017-08-06T14:48:56.707Z,26.01
2017-08-06T14:50:03.760Z,25.98
2017-08-06T14:51:10.803Z,25.97
2017-08-06T14:52:17.867Z,25.96
2017-08-06T14:53:24.930Z,25.89
2017-08-06T14:54:32.043Z,25.86
2017-08-06T14:55:39.090Z,25.79
2017-08-06T14:56:46.192Z,25.74
2017-08-06T14:57:53.247Z,25.69
2017-08-06T14:59:00.322Z,25.64